Time;durP1;ratioP1;P1;durP2;ratioP2;P2;SDS_P1;SDS_P2;PMS_P1;PMS_P2;Temp;Humidity;BMP_temperature;BMP_pressure;BME280_temperature;BME280_humidity;BME280_pressure;Samples;Min_cycle;Max_cycle;Signal;HPM_P1;HPM_P2
2023/03/21 00:00:28;;;;;;;15.85;5.88;;;10.60;99.90;;;;;;5002217;28;20374;-62
2023/03/21 00:02:54;;;;;;;12.65;5.47;;;10.60;99.90;;;;;;5004166;28;20102;-61
2023/03/21 00:05:20;;;;;;;18.45;6.20;;;10.50;99.90;;;;;;4997979;28;20106;-61
2023/03/21 00:07:46;;;;;;;17.00;5.90;;;10.60;99.90;;;;;;5000467;28;20042;-61
2023/03/21 00:10:12;;;;;;;14.88;6.10;;;10.60;99.90;;;;;;5004063;28;20030;-62
2023/03/21 00:12:37;;;;;;;18.88;6.15;;;10.60;99.90;;;;;;4984330;28;20053;-62
2023/03/21 00:15:08;;;;;;;13.68;5.90;;;10.60;99.90;;;;;;5003287;28;20066;-62
2023/03/21 00:17:35;;;;;;;18.88;5.85;;;10.70;99.90;;;;;;4999694;28;20050;-61
2023/03/21 00:20:04;;;;;;;15.07;5.97;;;10.70;99.90;;;;;;5001361;28;20041;-61
2023/03/21 00:22:30;;;;;;;17.30;6.18;;;10.70;99.90;;;;;;4997641;28;20045;-62
2023/03/21 00:24:56;;;;;;;13.55;5.75;;;10.80;99.90;;;;;;5001568;28;21075;-61
2023/03/21 00:27:22;;;;;;;18.40;6.78;;;10.90;99.90;;;;;;5001886;28;20045;-61
2023/03/21 00:29:48;;;;;;;17.52;6.22;;;11.00;99.90;;;;;;5004325;28;20041;-62
2023/03/21 00:32:14;;;;;;;14.55;6.15;;;11.00;99.90;;;;;;4998585;28;20040;-61
2023/03/21 00:34:41;;;;;;;16.50;6.70;;;10.80;99.90;;;;;;4980819;28;20430;-61
2023/03/21 00:37:08;;;;;;;18.90;6.97;;;10.90;99.90;;;;;;5000857;28;20372;-62
2023/03/21 00:39:34;;;;;;;17.00;6.47;;;10.80;99.90;;;;;;5004137;28;20034;-62
2023/03/21 00:42:00;;;;;;;17.15;6.00;;;10.80;99.90;;;;;;5002211;28;20045;-62
2023/03/21 00:44:26;;;;;;;20.67;7.05;;;10.90;99.90;;;;;;5002819;28;20128;-62
2023/03/21 00:46:52;;;;;;;14.68;5.82;;;11.00;99.90;;;;;;5003883;28;20128;-61
2023/03/21 00:49:19;;;;;;;16.67;6.63;;;11.00;99.90;;;;;;5001572;28;20042;-62
2023/03/21 00:51:50;;;;;;;15.50;6.38;;;10.80;99.90;;;;;;5003300;28;20112;-62
2023/03/21 00:54:16;;;;;;;13.13;6.10;;;10.80;99.90;;;;;;4980440;28;20033;-62
2023/03/21 00:56:41;;;;;;;15.63;6.25;;;11.00;99.90;;;;;;5001799;28;20037;-61
2023/03/21 00:59:07;;;;;;;17.30;6.40;;;10.80;99.90;;;;;;5002935;28;20081;-61
2023/03/21 01:01:33;;;;;;;15.65;6.28;;;10.90;99.90;;;;;;5005187;28;20260;-62
2023/03/21 01:04:12;;;;;;;12.27;6.22;;;10.80;99.90;;;;;;5000819;28;20534;-62
2023/03/21 01:06:38;;;;;;;11.77;6.10;;;11.10;99.90;;;;;;4983282;28;20675;-62
2023/03/21 01:09:06;;;;;;;15.90;6.70;;;11.10;99.90;;;;;;4999575;28;20045;-62
2023/03/21 01:11:32;;;;;;;15.55;6.70;;;10.90;99.90;;;;;;4999314;28;20493;-62
2023/03/21 01:13:58;;;;;;;15.98;6.75;;;11.00;99.90;;;;;;5003544;28;20026;-61
2023/03/21 01:16:24;;;;;;;18.92;6.40;;;10.90;99.90;;;;;;5001191;28;20041;-61
2023/03/21 01:18:50;;;;;;;13.68;6.30;;;10.70;99.90;;;;;;5003353;28;20906;-62
2023/03/21 01:21:16;;;;;;;13.07;6.18;;;10.60;99.90;;;;;;5001315;28;20034;-62
2023/03/21 01:23:42;;;;;;;13.35;6.53;;;10.70;99.90;;;;;;5003039;28;20176;-62
2023/03/21 01:26:09;;;;;;;20.50;7.60;;;10.80;99.90;;;;;;4997843;28;20022;-62
2023/03/21 01:28:36;;;;;;;17.15;6.75;;;10.90;99.90;;;;;;5003090;28;20072;-62
2023/03/21 01:31:03;;;;;;;15.57;6.28;;;10.90;99.90;;;;;;5000826;28;20519;-61
2023/03/21 01:33:30;;;;;;;16.50;6.78;;;11.00;99.90;;;;;;5003052;28;20112;-62
2023/03/21 01:35:56;;;;;;;15.43;7.22;;;11.00;99.90;;;;;;5000240;28;20041;-62
2023/03/21 01:38:22;;;;;;;12.93;6.53;;;10.80;99.90;;;;;;5001411;28;20042;-61
2023/03/21 01:40:48;;;;;;;15.88;6.32;;;10.80;99.90;;;;;;4997544;28;20250;-61
2023/03/21 01:43:35;;;;;;;17.15;6.88;;;10.60;99.90;;;;;;4997154;28;20072;-62
2023/03/21 01:46:22;;;;;;;18.77;7.22;;;10.70;99.90;;;;;;5002663;28;20037;-62
2023/03/21 01:48:53;;;;;;;20.45;7.82;;;10.80;99.90;;;;;;4997878;28;20409;-61
2023/03/21 01:51:19;;;;;;;18.75;8.20;;;10.80;99.90;;;;;;5001115;28;20335;-61
2023/03/21 01:53:46;;;;;;;19.63;7.43;;;10.90;99.90;;;;;;4980184;28;20145;-61
2023/03/21 01:56:32;;;;;;;19.23;8.13;;;11.00;99.90;;;;;;4996999;28;20398;-61
2023/03/21 01:59:39;;;;;;;24.13;8.85;;;10.90;99.90;;;;;;4999726;28;20034;-61
2023/03/21 02:02:08;;;;;;;21.58;8.15;;;11.10;99.90;;;;;;5001651;28;20065;-61
2023/03/21 02:04:37;;;;;;;21.92;8.55;;;11.00;99.90;;;;;;4997902;28;20374;-61
2023/03/21 02:07:13;;;;;;;20.83;8.20;;;10.80;99.90;;;;;;4994291;28;20644;-60
2023/03/21 02:09:43;;;;;;;19.27;8.18;;;10.70;99.90;;;;;;5001583;28;20026;-61
2023/03/21 02:12:09;;;;;;;20.33;9.25;;;10.80;99.90;;;;;;4999213;28;20038;-60
2023/03/21 02:14:37;;;;;;;20.27;8.45;;;10.80;99.90;;;;;;5000469;28;20077;-62
2023/03/21 02:17:26;;;;;;;20.98;8.50;;;10.60;99.90;;;;;;5001073;28;20038;-60
2023/03/21 02:20:28;;;;;;;18.88;8.80;;;10.50;99.90;;;;;;5000993;28;20525;-62
2023/03/21 02:23:16;;;;;;;17.60;8.35;;;10.60;99.90;;;;;;5001312;28;20041;-62
2023/03/21 02:26:18;;;;;;;17.70;8.70;;;10.80;99.90;;;;;;4999210;28;20132;-61
2023/03/21 02:29:30;;;;;;;18.80;8.43;;;10.80;99.90;;;;;;4979257;28;20162;-62
2023/03/21 02:31:59;;;;;;;22.38;8.20;;;10.60;99.90;;;;;;4962422;28;20129;-62
2023/03/21 02:34:40;;;;;;;15.68;8.02;;;10.50;99.90;;;;;;4997224;28;20042;-62
2023/03/21 02:37:13;;;;;;;15.40;7.82;;;10.40;99.90;;;;;;5000075;28;20107;-61
2023/03/21 02:39:51;;;;;;;13.63;7.90;;;10.40;99.90;;;;;;4999990;28;20038;-62
2023/03/21 02:42:32;;;;;;;21.48;8.55;;;10.50;99.90;;;;;;4999710;28;20616;-62
2023/03/21 02:45:04;;;;;;;20.70;9.00;;;10.50;99.90;;;;;;5002746;28;20085;-62
2023/03/21 02:47:37;;;;;;;19.80;8.65;;;10.40;99.90;;;;;;4999828;28;20578;-62
2023/03/21 02:50:23;;;;;;;15.10;8.05;;;10.50;99.90;;;;;;4997744;28;20045;-61
2023/03/21 02:52:51;;;;;;;16.63;8.05;;;10.50;99.90;;;;;;4998726;28;20120;-62
2023/03/21 02:55:23;;;;;;;19.45;8.43;;;10.50;99.90;;;;;;5000061;28;20143;-62
2023/03/21 02:57:51;;;;;;;15.20;7.97;;;10.50;99.90;;;;;;5001880;28;20136;-62
2023/03/21 03:00:21;;;;;;;20.65;8.55;;;10.40;99.90;;;;;;5003646;28;20038;-62
2023/03/21 03:02:49;;;;;;;15.48;8.07;;;10.50;99.90;;;;;;4983423;28;20628;-62
2023/03/21 03:05:24;;;;;;;17.77;8.93;;;10.50;99.90;;;;;;5006419;28;20385;-62
2023/03/21 03:08:13;;;;;;;20.08;8.77;;;10.50;99.90;;;;;;5003559;28;20121;-62
2023/03/21 03:10:56;;;;;;;23.30;8.73;;;10.60;99.90;;;;;;4985878;28;20038;-62
2023/03/21 03:14:04;;;;;;;15.90;8.07;;;10.50;99.90;;;;;;5003174;28;20144;-62
2023/03/21 03:16:35;;;;;;;18.00;8.63;;;10.40;99.90;;;;;;5001496;28;20030;-62
2023/03/21 03:19:05;;;;;;;16.73;8.50;;;10.50;99.90;;;;;;5005706;28;20057;-62
2023/03/21 03:21:55;;;;;;;21.80;9.23;;;10.50;99.90;;;;;;5005226;28;20518;-62
2023/03/21 03:24:30;;;;;;;20.58;9.13;;;10.40;99.90;;;;;;5002832;28;20073;-62
2023/03/21 03:27:14;;;;;;;19.23;9.13;;;10.30;99.90;;;;;;4999841;28;20366;-61
2023/03/21 03:29:43;;;;;;;17.60;8.98;;;10.40;99.90;;;;;;4999359;28;20591;-61
2023/03/21 03:32:24;;;;;;;17.95;8.85;;;10.30;99.90;;;;;;4985433;28;20092;-62
2023/03/21 03:34:55;;;;;;;19.58;9.13;;;10.30;99.90;;;;;;4982751;28;20132;-62
2023/03/21 03:37:26;;;;;;;20.33;8.90;;;10.40;99.90;;;;;;5003733;28;20053;-61
2023/03/21 03:40:04;;;;;;;19.67;8.90;;;10.50;99.90;;;;;;4995557;28;20042;-61
2023/03/21 03:42:42;;;;;;;20.58;8.73;;;10.40;99.90;;;;;;5003238;28;20061;-63
2023/03/21 03:45:09;;;;;;;22.65;8.48;;;10.40;99.90;;;;;;5004164;28;20098;-61
2023/03/21 03:48:06;;;;;;;16.60;8.02;;;10.30;99.90;;;;;;4995897;28;20045;-62
2023/03/21 03:50:42;;;;;;;22.48;8.50;;;10.40;99.90;;;;;;4983775;28;20092;-62
2023/03/21 03:53:25;;;;;;;17.75;8.50;;;10.40;99.90;;;;;;5001534;28;20050;-62
2023/03/21 03:55:54;;;;;;;17.10;8.55;;;10.40;99.90;;;;;;5003432;28;20052;-62
2023/03/21 03:58:21;;;;;;;17.20;8.13;;;10.30;99.90;;;;;;5003562;28;21073;-61
2023/03/21 04:00:47;;;;;;;19.73;8.68;;;10.30;99.90;;;;;;5003008;28;20064;-61
2023/03/21 04:03:13;;;;;;;19.08;8.48;;;10.30;99.90;;;;;;5003398;28;20279;-62
2023/03/21 04:05:40;;;;;;;16.35;7.97;;;10.30;99.90;;;;;;5003285;28;20084;-62
2023/03/21 04:08:07;;;;;;;17.15;7.82;;;10.30;99.90;;;;;;5003022;28;20042;-62
2023/03/21 04:10:33;;;;;;;17.23;7.95;;;10.10;99.90;;;;;;5004513;28;20030;-62
2023/03/21 04:12:58;;;;;;;17.90;8.30;;;10.10;99.90;;;;;;5003114;28;20053;-62
2023/03/21 04:15:24;;;;;;;17.67;8.57;;;10.10;99.90;;;;;;5003169;28;20517;-62
2023/03/21 04:17:50;;;;;;;18.25;8.38;;;10.10;99.90;;;;;;5001780;28;20048;-61
2023/03/21 04:20:16;;;;;;;17.70;8.82;;;10.10;99.90;;;;;;5001525;28;20038;-62
2023/03/21 04:22:41;;;;;;;19.20;9.50;;;10.00;99.90;;;;;;5001603;28;20034;-62
2023/03/21 04:25:07;;;;;;;16.92;9.43;;;10.10;99.90;;;;;;5003484;28;20049;-61
2023/03/21 04:27:33;;;;;;;20.02;9.20;;;10.00;99.90;;;;;;5000883;28;20468;-62
2023/03/21 04:29:59;;;;;;;20.15;9.40;;;10.10;99.90;;;;;;5001905;28;20121;-61
2023/03/21 04:32:25;;;;;;;19.15;9.00;;;10.20;99.90;;;;;;5000422;28;20061;-61
2023/03/21 04:34:53;;;;;;;19.77;9.60;;;10.20;99.90;;;;;;4998805;28;20048;-61
2023/03/21 04:37:22;;;;;;;19.08;8.68;;;10.10;99.90;;;;;;5001387;28;20172;-61
2023/03/21 04:39:49;;;;;;;19.55;9.35;;;10.10;99.90;;;;;;5003298;28;20041;-61
2023/03/21 04:42:17;;;;;;;23.52;9.23;;;10.10;99.90;;;;;;4999021;28;20044;-61
2023/03/21 04:44:43;;;;;;;17.35;9.07;;;10.20;99.90;;;;;;5003083;28;20089;-61
2023/03/21 04:47:09;;;;;;;20.48;9.55;;;10.10;99.90;;;;;;5000464;28;20034;-60
2023/03/21 04:49:35;;;;;;;18.55;9.40;;;10.10;99.90;;;;;;4999186;28;20046;-61
2023/03/21 04:52:01;;;;;;;19.77;9.10;;;10.10;99.90;;;;;;5004159;28;20053;-60
2023/03/21 04:54:27;;;;;;;21.77;9.95;;;10.00;99.90;;;;;;4971926;28;20045;-61
2023/03/21 04:56:52;;;;;;;20.83;9.50;;;10.00;99.90;;;;;;4970414;28;20038;-61
2023/03/21 04:59:20;;;;;;;19.23;9.75;;;10.10;99.90;;;;;;4993282;28;20066;-61
2023/03/21 05:01:46;;;;;;;23.00;10.68;;;10.10;99.90;;;;;;5002715;28;20111;-60
2023/03/21 05:04:13;;;;;;;23.05;9.75;;;10.00;99.90;;;;;;5005090;28;20026;-60
2023/03/21 05:06:41;;;;;;;19.98;9.57;;;9.90;99.90;;;;;;4996202;28;20731;-60
2023/03/21 05:09:07;;;;;;;22.35;10.02;;;9.90;99.90;;;;;;5002694;28;20058;-59
2023/03/21 05:11:36;;;;;;;19.40;9.77;;;9.70;99.90;;;;;;4984458;28;20072;-60
2023/03/21 05:14:07;;;;;;;17.30;9.52;;;9.70;99.90;;;;;;5003169;28;20037;-58
2023/03/21 05:16:33;;;;;;;17.70;10.13;;;9.70;99.90;;;;;;5002025;28;20034;-60
2023/03/21 05:19:03;;;;;;;20.63;9.75;;;9.70;99.90;;;;;;4999440;28;20030;-61
2023/03/21 05:21:40;;;;;;;23.02;10.02;;;9.70;99.90;;;;;;4999683;28;20037;-60
2023/03/21 05:24:10;;;;;;;18.70;9.88;;;9.80;99.90;;;;;;4999577;28;20311;-61
2023/03/21 05:26:40;;;;;;;18.50;10.63;;;9.80;99.90;;;;;;4997105;28;20064;-60
2023/03/21 05:29:06;;;;;;;20.95;10.55;;;9.90;99.90;;;;;;4999237;28;20241;-60
2023/03/21 05:31:32;;;;;;;18.27;9.77;;;10.10;99.90;;;;;;4998005;28;20046;-60
2023/03/21 05:33:58;;;;;;;22.15;10.63;;;10.00;99.90;;;;;;5001769;28;20042;-60
2023/03/21 05:36:24;;;;;;;22.40;9.70;;;10.10;99.90;;;;;;5007601;28;20042;-61
2023/03/21 05:38:50;;;;;;;19.20;9.95;;;10.00;99.90;;;;;;4984689;28;20296;-60
2023/03/21 05:41:17;;;;;;;26.45;10.20;;;10.10;99.90;;;;;;5001440;28;20521;-60
2023/03/21 05:43:42;;;;;;;19.08;9.20;;;10.10;99.90;;;;;;5003131;28;20037;-60
2023/03/21 05:46:09;;;;;;;20.83;9.70;;;10.10;99.90;;;;;;4980121;28;20038;-61
2023/03/21 05:48:35;;;;;;;19.20;10.05;;;10.10;99.90;;;;;;4998607;28;20039;-61
2023/03/21 05:51:01;;;;;;;15.65;9.18;;;10.10;99.90;;;;;;5003113;28;20038;-60
2023/03/21 05:53:27;;;;;;;14.93;8.43;;;10.00;99.90;;;;;;4993358;28;20034;-61
2023/03/21 05:55:52;;;;;;;18.98;8.93;;;10.00;99.90;;;;;;5001117;28;20421;-60
2023/03/21 05:58:18;;;;;;;19.35;9.40;;;9.90;99.90;;;;;;4997224;28;20042;-60
2023/03/21 06:00:44;;;;;;;17.52;8.43;;;9.90;99.90;;;;;;5004248;28;20134;-60
2023/03/21 06:03:09;;;;;;;19.15;8.55;;;9.90;99.90;;;;;;5002235;28;20049;-60
2023/03/21 06:05:35;;;;;;;17.95;8.65;;;9.80;99.90;;;;;;5000649;28;20069;-60
2023/03/21 06:08:01;;;;;;;22.50;9.20;;;9.80;99.90;;;;;;5000285;28;20140;-60
2023/03/21 06:10:26;;;;;;;18.70;8.63;;;9.90;99.90;;;;;;4984745;28;20038;-60
2023/03/21 06:12:52;;;;;;;15.60;8.27;;;10.00;99.90;;;;;;5001022;28;20042;-60
2023/03/21 06:15:18;;;;;;;23.92;9.10;;;10.00;99.90;;;;;;4997870;28;20501;-60
2023/03/21 06:17:43;;;;;;;19.02;8.95;;;9.80;99.90;;;;;;5000503;28;20052;-60
2023/03/21 06:20:10;;;;;;;19.08;8.98;;;9.90;99.90;;;;;;5000643;28;20056;-60
2023/03/21 06:22:36;;;;;;;21.67;8.50;;;9.70;99.90;;;;;;5006775;28;20034;-60
2023/03/21 06:25:02;;;;;;;20.27;9.10;;;9.70;99.90;;;;;;4998017;28;20115;-57
2023/03/21 06:27:28;;;;;;;22.15;9.05;;;9.70;99.90;;;;;;4992079;28;20072;-60
2023/03/21 06:29:53;;;;;;;22.35;9.60;;;9.80;99.90;;;;;;4995418;28;20053;-57
2023/03/21 06:32:19;;;;;;;19.67;8.70;;;9.90;99.90;;;;;;5002160;28;20079;-56
2023/03/21 06:34:46;;;;;;;24.35;9.93;;;10.10;99.90;;;;;;5005814;28;20042;-56
2023/03/21 06:37:11;;;;;;;17.25;8.85;;;10.20;99.90;;;;;;5001765;28;20434;-56
2023/03/21 06:39:37;;;;;;;15.88;8.02;;;10.10;99.90;;;;;;5004256;28;20111;-57
2023/03/21 06:42:02;;;;;;;21.38;9.18;;;9.90;99.90;;;;;;4998768;28;20065;-56
2023/03/21 06:44:29;;;;;;;21.30;9.20;;;9.90;99.90;;;;;;5005231;28;20034;-56
2023/03/21 06:46:55;;;;;;;16.50;8.60;;;9.90;99.90;;;;;;5005402;28;20041;-57
2023/03/21 06:49:20;;;;;;;16.55;8.32;;;9.90;99.90;;;;;;5002758;28;21304;-56
2023/03/21 06:51:46;;;;;;;21.52;9.38;;;9.90;99.90;;;;;;5005009;28;20037;-59
2023/03/21 06:54:13;;;;;;;19.48;8.35;;;10.00;99.90;;;;;;5003059;28;20034;-60
2023/03/21 06:56:40;;;;;;;18.25;8.73;;;10.00;99.90;;;;;;5003928;28;20433;-59
2023/03/21 06:59:07;;;;;;;21.48;9.18;;;10.10;99.90;;;;;;5003197;28;20056;-59
2023/03/21 07:01:32;;;;;;;21.10;9.77;;;10.20;99.90;;;;;;5004220;28;20129;-59
2023/03/21 07:03:58;;;;;;;22.10;9.05;;;10.40;99.90;;;;;;5005404;28;20137;-60
2023/03/21 07:06:25;;;;;;;20.98;9.38;;;10.40;99.90;;;;;;5003870;28;20042;-60
2023/03/21 07:08:52;;;;;;;20.63;9.10;;;10.30;99.90;;;;;;5006474;28;20493;-59
2023/03/21 07:11:18;;;;;;;21.77;9.02;;;10.30;99.90;;;;;;5012517;28;20053;-59
2023/03/21 07:13:44;;;;;;;25.05;8.88;;;10.20;99.90;;;;;;5012679;28;20060;-59
2023/03/21 07:16:10;;;;;;;19.35;8.82;;;10.30;99.90;;;;;;5005448;28;20041;-59
2023/03/21 07:18:37;;;;;;;16.38;8.73;;;10.30;99.90;;;;;;5000993;28;20044;-60
2023/03/21 07:21:02;;;;;;;18.17;8.40;;;10.40;99.90;;;;;;4998871;28;20041;-60
2023/03/21 07:23:28;;;;;;;17.83;8.40;;;10.40;99.90;;;;;;5003871;28;20450;-60
2023/03/21 07:25:54;;;;;;;16.95;8.10;;;10.40;99.90;;;;;;4985909;28;20104;-59
2023/03/21 07:28:20;;;;;;;16.73;8.07;;;10.50;99.90;;;;;;5003170;28;20057;-60
2023/03/21 07:30:52;;;;;;;17.80;8.23;;;10.50;99.90;;;;;;5000617;28;20400;-60
2023/03/21 07:33:18;;;;;;;19.45;8.95;;;10.70;99.90;;;;;;4996224;28;20046;-60
2023/03/21 07:35:44;;;;;;;24.40;8.63;;;10.80;99.90;;;;;;5003204;28;20500;-60
2023/03/21 07:38:09;;;;;;;16.23;7.75;;;10.80;99.90;;;;;;5000642;28;20100;-59
2023/03/21 07:40:35;;;;;;;21.85;7.95;;;10.80;99.90;;;;;;5004986;28;20038;-59
2023/03/21 07:43:00;;;;;;;15.77;7.85;;;10.70;99.90;;;;;;4997127;28;20046;-59
2023/03/21 07:45:26;;;;;;;18.17;8.00;;;10.70;99.90;;;;;;5002917;28;20488;-59
2023/03/21 07:47:53;;;;;;;20.08;8.45;;;10.80;99.90;;;;;;5002275;28;20450;-59
2023/03/21 07:50:19;;;;;;;20.10;8.32;;;10.80;99.90;;;;;;5002908;28;20300;-59
2023/03/21 07:52:45;;;;;;;21.73;7.90;;;10.90;99.90;;;;;;5001552;28;20597;-59
2023/03/21 07:55:11;;;;;;;14.32;7.53;;;11.00;99.90;;;;;;5002706;28;20041;-59
2023/03/21 07:57:36;;;;;;;18.80;8.73;;;10.90;99.90;;;;;;5000628;28;20444;-59
2023/03/21 08:00:04;;;;;;;15.65;7.70;;;10.90;99.90;;;;;;5004565;28;20042;-58
2023/03/21 08:02:29;;;;;;;22.58;8.20;;;10.80;99.90;;;;;;5003807;28;20156;-59
2023/03/21 08:04:55;;;;;;;19.50;7.55;;;10.80;99.90;;;;;;5003181;28;20549;-60
2023/03/21 08:07:20;;;;;;;23.35;7.38;;;10.70;99.90;;;;;;5002826;28;20374;-59
2023/03/21 08:09:46;;;;;;;17.92;6.65;;;10.60;99.90;;;;;;5004273;28;20449;-59
2023/03/21 08:12:12;;;;;;;18.52;6.45;;;10.60;99.90;;;;;;5002367;28;20029;-59
2023/03/21 08:14:38;;;;;;;15.07;6.47;;;10.60;99.90;;;;;;5001160;28;20045;-59
2023/03/21 08:17:04;;;;;;;15.90;6.57;;;10.60;99.90;;;;;;5003845;28;20044;-59
2023/03/21 08:19:30;;;;;;;14.82;6.22;;;10.50;99.90;;;;;;4998037;28;20082;-59
2023/03/21 08:21:58;;;;;;;11.35;5.30;;;10.50;99.90;;;;;;5001667;28;20046;-59
2023/03/21 08:24:24;;;;;;;11.70;5.05;;;10.50;99.90;;;;;;5001183;28;20052;-59
2023/03/21 08:26:50;;;;;;;13.77;5.57;;;10.50;99.90;;;;;;4999635;28;20038;-59
2023/03/21 08:29:16;;;;;;;12.27;5.78;;;10.60;99.90;;;;;;5000723;28;20037;-59
2023/03/21 08:31:42;;;;;;;11.57;5.22;;;10.60;99.90;;;;;;5004806;28;20037;-59
2023/03/21 08:34:07;;;;;;;17.40;5.70;;;10.60;99.90;;;;;;5003645;28;20044;-59
2023/03/21 08:36:35;;;;;;;11.85;5.72;;;10.60;99.90;;;;;;5007183;28;20115;-59
2023/03/21 08:39:04;;;;;;;9.52;4.72;;;10.60;99.90;;;;;;4988088;28;20385;-59
2023/03/21 08:41:34;;;;;;;10.30;4.78;;;10.70;99.90;;;;;;5002051;28;20530;-59
2023/03/21 08:44:00;;;;;;;12.07;5.20;;;10.70;99.90;;;;;;5004733;28;20435;-60
2023/03/21 08:46:26;;;;;;;10.15;5.18;;;10.70;99.90;;;;;;5003704;28;20041;-59
2023/03/21 08:48:53;;;;;;;14.57;5.45;;;10.60;99.90;;;;;;5005334;28;20034;-59
2023/03/21 08:51:18;;;;;;;12.52;6.32;;;10.70;99.90;;;;;;5004338;28;20261;-59
2023/03/21 08:53:44;;;;;;;14.48;6.05;;;10.80;99.90;;;;;;5003483;28;20465;-60
2023/03/21 08:56:10;;;;;;;10.75;5.55;;;10.90;99.90;;;;;;5001659;28;20087;-60
2023/03/21 08:58:36;;;;;;;10.63;5.53;;;11.10;99.90;;;;;;5004452;28;20613;-60
2023/03/21 09:01:03;;;;;;;13.07;5.43;;;10.80;99.90;;;;;;4984114;28;20041;-59
2023/03/21 09:03:29;;;;;;;15.65;5.70;;;10.80;99.90;;;;;;5001195;28;20110;-59
2023/03/21 09:05:55;;;;;;;14.60;6.10;;;10.80;99.90;;;;;;5000458;28;20111;-59
2023/03/21 09:08:24;;;;;;;10.25;5.22;;;10.70;99.90;;;;;;4984154;28;20041;-59
2023/03/21 09:10:53;;;;;;;10.20;5.68;;;10.80;99.90;;;;;;5003674;28;20428;-59
2023/03/21 09:13:20;;;;;;;13.15;7.13;;;10.80;99.90;;;;;;5002916;28;20049;-59
2023/03/21 09:15:46;;;;;;;13.95;6.60;;;10.90;99.90;;;;;;5002232;28;20120;-59
2023/03/21 09:18:12;;;;;;;15.80;6.70;;;10.70;99.90;;;;;;4999595;28;20129;-59
2023/03/21 09:20:38;;;;;;;15.02;7.80;;;10.80;99.90;;;;;;5002836;28;20097;-59
2023/03/21 09:23:04;;;;;;;16.35;7.90;;;10.70;99.90;;;;;;5003108;28;20493;-59
2023/03/21 09:25:30;;;;;;;17.65;8.30;;;10.90;99.90;;;;;;5002209;28;20117;-59
2023/03/21 09:27:56;;;;;;;18.50;8.43;;;11.00;99.90;;;;;;5000703;28;20038;-59
2023/03/21 09:30:22;;;;;;;13.88;8.15;;;11.00;99.90;;;;;;5001635;28;20077;-59
2023/03/21 09:32:49;;;;;;;17.55;8.02;;;11.10;99.90;;;;;;5000390;28;20041;-59
2023/03/21 09:35:19;;;;;;;16.65;8.85;;;11.00;99.90;;;;;;5003371;28;20360;-59
2023/03/21 09:37:47;;;;;;;19.65;9.30;;;11.20;99.90;;;;;;5004539;28;20068;-59
2023/03/21 09:40:43;;;;;;;18.98;9.52;;;11.40;99.90;;;;;;5003013;28;20034;-59
2023/03/21 09:43:46;;;;;;;18.45;8.90;;;11.50;99.90;;;;;;4971596;28;20243;-58
2023/03/21 09:46:40;;;;;;;16.25;9.32;;;11.40;99.90;;;;;;4989747;28;20041;-58
2023/03/21 09:49:21;;;;;;;17.20;8.80;;;11.40;99.90;;;;;;4995576;28;20494;-58
2023/03/21 09:51:53;;;;;;;16.70;8.05;;;11.30;99.90;;;;;;4998318;28;20038;-58
2023/03/21 09:54:26;;;;;;;15.60;8.20;;;11.20;99.90;;;;;;5002471;28;20497;-58
2023/03/21 09:56:55;;;;;;;20.25;8.20;;;11.20;99.90;;;;;;4996876;28;20363;-58
2023/03/21 09:59:41;;;;;;;19.30;8.43;;;11.20;99.90;;;;;;5002229;28;20034;-58
2023/03/21 10:02:34;;;;;;;19.05;9.00;;;11.20;99.90;;;;;;5001016;28;20480;-58
2023/03/21 10:05:03;;;;;;;21.45;9.40;;;11.20;99.90;;;;;;5001252;28;20124;-59
2023/03/21 10:07:34;;;;;;;15.60;8.18;;;11.50;99.90;;;;;;5001986;28;20030;-59
2023/03/21 10:10:03;;;;;;;19.67;8.82;;;11.50;99.90;;;;;;5003262;28;20101;-59
2023/03/21 10:12:30;;;;;;;18.33;8.60;;;11.50;99.90;;;;;;4983889;28;20041;-59
2023/03/21 10:14:59;;;;;;;16.55;9.30;;;11.50;99.90;;;;;;4983943;28;20405;-59
2023/03/21 10:17:27;;;;;;;15.80;8.02;;;11.50;99.90;;;;;;4999828;28;20038;-59
2023/03/21 10:20:10;;;;;;;22.42;9.07;;;11.40;99.90;;;;;;4981909;28;20438;-59
2023/03/21 10:22:36;;;;;;;14.40;6.75;;;11.50;99.90;;;;;;4999809;28;20798;-59
2023/03/21 10:25:03;;;;;;;16.88;8.55;;;11.50;99.90;;;;;;4999388;28;20041;-59
2023/03/21 10:27:30;;;;;;;17.20;8.82;;;11.40;99.90;;;;;;4999038;28;20485;-59
2023/03/21 10:29:56;;;;;;;19.15;8.45;;;11.30;99.90;;;;;;4997489;28;20395;-59
2023/03/21 10:32:22;;;;;;;19.52;9.30;;;11.30;99.90;;;;;;4998840;28;20363;-59
2023/03/21 10:34:54;;;;;;;17.15;9.30;;;11.40;99.90;;;;;;4996641;28;20042;-59
2023/03/21 10:37:22;;;;;;;16.77;8.50;;;11.50;99.90;;;;;;5002347;28;20030;-59
2023/03/21 10:39:52;;;;;;;17.92;9.43;;;11.50;99.90;;;;;;5001736;28;20355;-60
2023/03/21 10:42:20;;;;;;;24.17;10.07;;;11.60;99.90;;;;;;5003317;28;20175;-59
2023/03/21 10:44:48;;;;;;;18.65;9.45;;;11.70;99.90;;;;;;5002496;28;20416;-59
2023/03/21 10:47:25;;;;;;;18.67;9.95;;;11.80;99.90;;;;;;4985858;28;20516;-58
2023/03/21 10:49:51;;;;;;;19.30;10.13;;;11.80;99.90;;;;;;5000665;28;20417;-60
2023/03/21 10:52:21;;;;;;;20.55;10.23;;;11.90;99.90;;;;;;5002252;28;20038;-58
2023/03/21 10:54:48;;;;;;;17.50;9.55;;;11.90;99.90;;;;;;5001208;28;20046;-59
2023/03/21 10:57:21;;;;;;;22.05;10.70;;;11.90;99.90;;;;;;4998895;28;20429;-58
2023/03/21 10:59:52;;;;;;;21.75;10.90;;;11.90;99.90;;;;;;4982518;28;20038;-58
2023/03/21 11:02:33;;;;;;;20.65;10.40;;;11.90;99.90;;;;;;5001563;28;20034;-59
2023/03/21 11:05:13;;;;;;;24.52;11.27;;;11.90;99.90;;;;;;5002576;28;20038;-58
2023/03/21 11:07:40;;;;;;;19.55;9.75;;;11.90;99.90;;;;;;4999674;28;20042;-59
2023/03/21 11:10:25;;;;;;;20.00;10.50;;;11.90;99.90;;;;;;5001941;28;20042;-58
2023/03/21 11:12:55;;;;;;;21.42;10.55;;;12.00;99.90;;;;;;4999771;28;20167;-58
2023/03/21 11:15:25;;;;;;;23.67;11.05;;;12.20;99.90;;;;;;5009072;28;21643;-59
2023/03/21 11:17:50;;;;;;;18.70;10.20;;;12.20;99.90;;;;;;5010416;28;20026;-59
2023/03/21 11:20:17;;;;;;;17.15;10.13;;;12.40;99.90;;;;;;5004300;28;20037;-59
2023/03/21 11:22:44;;;;;;;16.27;10.00;;;12.60;99.90;;;;;;5002960;28;20042;-59
2023/03/21 11:25:19;;;;;;;19.25;10.15;;;12.50;99.90;;;;;;5005826;28;20034;-59
2023/03/21 11:27:53;;;;;;;18.60;9.43;;;12.70;99.90;;;;;;5002419;28;20042;-59
2023/03/21 11:30:26;;;;;;;16.60;8.70;;;12.90;99.90;;;;;;5003049;28;20111;-59
2023/03/21 11:32:57;;;;;;;14.52;8.52;;;12.60;99.90;;;;;;5004444;28;20057;-59
2023/03/21 11:35:32;;;;;;;15.65;8.95;;;12.60;99.90;;;;;;4999290;28;20046;-59
2023/03/21 11:37:58;;;;;;;15.75;9.13;;;12.60;99.90;;;;;;5003173;28;20033;-59
2023/03/21 11:40:35;;;;;;;18.20;8.27;;;12.70;99.90;;;;;;5003279;28;20075;-59
2023/03/21 11:43:03;;;;;;;13.13;7.82;;;12.80;99.90;;;;;;5006419;28;20403;-59
2023/03/21 11:45:34;;;;;;;13.75;8.07;;;12.80;99.90;;;;;;5005025;28;20067;-59
2023/03/21 11:48:04;;;;;;;14.45;7.38;;;12.70;99.90;;;;;;5009314;28;20156;-59
2023/03/21 11:50:38;;;;;;;17.25;7.40;;;12.60;99.90;;;;;;5008309;28;20034;-59
2023/03/21 11:53:44;;;;;;;12.77;7.70;;;12.80;99.90;;;;;;5006220;28;20034;-59
2023/03/21 11:56:22;;;;;;;14.02;7.82;;;12.80;99.90;;;;;;4963590;28;20049;-59
2023/03/21 11:58:51;;;;;;;15.23;7.88;;;12.70;99.90;;;;;;5006537;28;20379;-59
2023/03/21 12:01:56;;;;;;;15.15;7.43;;;12.50;99.90;;;;;;4989665;28;20390;-59
2023/03/21 12:04:36;;;;;;;15.35;7.28;;;12.50;99.90;;;;;;5004174;28;20499;-59
2023/03/21 12:07:32;;;;;;;16.83;6.85;;;12.40;99.90;;;;;;5002691;28;20383;-59
2023/03/21 12:10:29;;;;;;;17.10;6.90;;;12.20;99.90;;;;;;5004992;28;20038;-59
2023/03/21 12:13:16;;;;;;;12.85;6.45;;;12.20;99.90;;;;;;4978596;28;20494;-59
2023/03/21 12:16:01;;;;;;;15.00;6.88;;;12.20;99.90;;;;;;4995281;28;20148;-59
2023/03/21 12:19:11;;;;;;;11.80;6.50;;;12.10;99.90;;;;;;5003313;28;20038;-59
2023/03/21 12:21:45;;;;;;;13.13;6.50;;;12.10;99.90;;;;;;4993750;28;20088;-59
2023/03/21 12:24:51;;;;;;;11.52;6.53;;;12.00;99.90;;;;;;5001327;28;20128;-59
2023/03/21 12:27:44;;;;;;;16.45;7.45;;;12.20;99.90;;;;;;4985619;28;20514;-59
2023/03/21 12:30:46;;;;;;;13.70;7.20;;;12.30;99.90;;;;;;5001443;28;20555;-59
2023/03/21 12:33:56;;;;;;;12.85;6.95;;;12.50;99.90;;;;;;5001346;28;20323;-59
2023/03/21 12:36:49;;;;;;;13.00;6.95;;;12.50;99.90;;;;;;5001933;28;20521;-59
2023/03/21 12:39:37;;;;;;;13.93;7.70;;;12.40;99.90;;;;;;5004155;28;20072;-59
2023/03/21 12:42:11;;;;;;;16.77;7.78;;;12.60;99.90;;;;;;4998155;28;20114;-59
2023/03/21 12:45:08;;;;;;;14.15;7.13;;;12.70;99.90;;;;;;4996514;28;20111;-59
2023/03/21 12:47:35;;;;;;;14.63;8.02;;;12.90;99.90;;;;;;4998204;28;20022;-60
2023/03/21 12:50:14;;;;;;;12.73;7.78;;;12.80;99.90;;;;;;5001166;28;20096;-60
2023/03/21 12:52:43;;;;;;;13.35;8.18;;;12.90;99.90;;;;;;5001220;28;20044;-60
2023/03/21 12:55:17;;;;;;;13.35;8.50;;;12.90;99.90;;;;;;5004570;28;20045;-60
2023/03/21 12:58:10;;;;;;;18.17;9.25;;;12.60;99.90;;;;;;4983013;28;20088;-60